sensor_id;sensor_type;location;lat;lon;timestamp;P1;durP1;ratioP1;P2;durP2;ratioP2
68353;SDS011;55274;43.060;25.618;2022-10-22T00:00:56;19.00;;;7.88;;
68353;SDS011;55274;43.060;25.618;2022-10-22T00:03:21;16.17;;;6.95;;
68353;SDS011;55274;43.060;25.618;2022-10-22T00:05:47;15.40;;;6.40;;
68353;SDS011;55274;43.060;25.618;2022-10-22T00:08:13;17.88;;;7.20;;
68353;SDS011;55274;43.060;25.618;2022-10-22T00:10:39;12.00;;;6.35;;
68353;SDS011;55274;43.060;25.618;2022-10-22T00:13:05;11.48;;;6.22;;
68353;SDS011;55274;43.060;25.618;2022-10-22T00:15:31;15.65;;;6.70;;
68353;SDS011;55274;43.060;25.618;2022-10-22T00:17:57;16.42;;;6.80;;
68353;SDS011;55274;43.060;25.618;2022-10-22T00:20:23;27.08;;;8.00;;
68353;SDS011;55274;43.060;25.618;2022-10-22T00:22:48;18.95;;;6.25;;
68353;SDS011;55274;43.060;25.618;2022-10-22T00:25:14;25.13;;;7.20;;
68353;SDS011;55274;43.060;25.618;2022-10-22T00:27:40;22.50;;;7.80;;
68353;SDS011;55274;43.060;25.618;2022-10-22T00:30:06;16.98;;;6.80;;
68353;SDS011;55274;43.060;25.618;2022-10-22T00:32:33;17.98;;;7.38;;
68353;SDS011;55274;43.060;25.618;2022-10-22T00:34:59;15.57;;;7.43;;
68353;SDS011;55274;43.060;25.618;2022-10-22T00:37:25;14.07;;;6.93;;
68353;SDS011;55274;43.060;25.618;2022-10-22T00:39:50;20.80;;;6.95;;
68353;SDS011;55274;43.060;25.618;2022-10-22T00:42:17;15.68;;;7.03;;
68353;SDS011;55274;43.060;25.618;2022-10-22T00:44:59;13.68;;;6.82;;
68353;SDS011;55274;43.060;25.618;2022-10-22T00:47:31;15.65;;;7.68;;
68353;SDS011;55274;43.060;25.618;2022-10-22T00:50:00;20.15;;;7.05;;
68353;SDS011;55274;43.060;25.618;2022-10-22T00:52:27;16.88;;;6.35;;
68353;SDS011;55274;43.060;25.618;2022-10-22T00:54:53;21.13;;;6.55;;
68353;SDS011;55274;43.060;25.618;2022-10-22T00:57:19;11.00;;;6.13;;
68353;SDS011;55274;43.060;25.618;2022-10-22T00:59:46;15.27;;;6.15;;
68353;SDS011;55274;43.060;25.618;2022-10-22T01:02:12;10.55;;;6.03;;
68353;SDS011;55274;43.060;25.618;2022-10-22T01:04:39;16.30;;;7.00;;
68353;SDS011;55274;43.060;25.618;2022-10-22T01:07:05;19.80;;;6.40;;
68353;SDS011;55274;43.060;25.618;2022-10-22T01:09:35;29.48;;;6.97;;
68353;SDS011;55274;43.060;25.618;2022-10-22T01:17:27;16.85;;;6.10;;
68353;SDS011;55274;43.060;25.618;2022-10-22T01:25:43;26.50;;;7.10;;
68353;SDS011;55274;43.060;25.618;2022-10-22T01:31:23;27.52;;;6.03;;
68353;SDS011;55274;43.060;25.618;2022-10-22T01:33:53;26.13;;;6.85;;
68353;SDS011;55274;43.060;25.618;2022-10-22T01:36:20;26.30;;;7.30;;
68353;SDS011;55274;43.060;25.618;2022-10-22T01:38:46;29.77;;;7.03;;
68353;SDS011;55274;43.060;25.618;2022-10-22T01:41:13;22.38;;;7.40;;
68353;SDS011;55274;43.060;25.618;2022-10-22T01:43:39;28.25;;;7.13;;
68353;SDS011;55274;43.060;25.618;2022-10-22T01:46:05;15.20;;;5.75;;
68353;SDS011;55274;43.060;25.618;2022-10-22T01:53:59;19.35;;;5.95;;
68353;SDS011;55274;43.060;25.618;2022-10-22T01:59:56;23.73;;;6.22;;
68353;SDS011;55274;43.060;25.618;2022-10-22T02:02:38;18.45;;;5.82;;
68353;SDS011;55274;43.060;25.618;2022-10-22T02:07:42;27.67;;;6.53;;
68353;SDS011;55274;43.060;25.618;2022-10-22T02:10:20;23.58;;;6.00;;
68353;SDS011;55274;43.060;25.618;2022-10-22T02:12:47;15.73;;;6.60;;
68353;SDS011;55274;43.060;25.618;2022-10-22T02:15:16;17.20;;;6.35;;
68353;SDS011;55274;43.060;25.618;2022-10-22T02:17:44;22.48;;;7.07;;
68353;SDS011;55274;43.060;25.618;2022-10-22T02:20:12;23.80;;;5.70;;
68353;SDS011;55274;43.060;25.618;2022-10-22T02:22:45;25.77;;;6.13;;
68353;SDS011;55274;43.060;25.618;2022-10-22T02:25:12;17.10;;;5.53;;
68353;SDS011;55274;43.060;25.618;2022-10-22T02:27:40;18.35;;;5.60;;
68353;SDS011;55274;43.060;25.618;2022-10-22T02:30:14;14.38;;;5.15;;
68353;SDS011;55274;43.060;25.618;2022-10-22T02:35:33;40.80;;;8.88;;
68353;SDS011;55274;43.060;25.618;2022-10-22T02:38:00;44.55;;;8.95;;
68353;SDS011;55274;43.060;25.618;2022-10-22T02:40:26;27.55;;;6.85;;
68353;SDS011;55274;43.060;25.618;2022-10-22T02:42:54;29.38;;;6.28;;
68353;SDS011;55274;43.060;25.618;2022-10-22T02:45:20;26.10;;;6.63;;
68353;SDS011;55274;43.060;25.618;2022-10-22T02:47:46;59.22;;;8.52;;
68353;SDS011;55274;43.060;25.618;2022-10-22T02:50:12;66.63;;;9.95;;
68353;SDS011;55274;43.060;25.618;2022-10-22T02:52:38;42.15;;;8.10;;
68353;SDS011;55274;43.060;25.618;2022-10-22T02:55:04;26.20;;;7.13;;
68353;SDS011;55274;43.060;25.618;2022-10-22T02:57:30;21.58;;;5.95;;
68353;SDS011;55274;43.060;25.618;2022-10-22T02:59:56;14.98;;;5.53;;
68353;SDS011;55274;43.060;25.618;2022-10-22T03:02:22;13.35;;;5.57;;
68353;SDS011;55274;43.060;25.618;2022-10-22T03:04:48;12.55;;;5.53;;
68353;SDS011;55274;43.060;25.618;2022-10-22T03:07:14;20.98;;;6.35;;
68353;SDS011;55274;43.060;25.618;2022-10-22T03:09:39;38.50;;;7.68;;
68353;SDS011;55274;43.060;25.618;2022-10-22T03:12:05;32.67;;;9.30;;
68353;SDS011;55274;43.060;25.618;2022-10-22T03:14:33;29.52;;;7.53;;
68353;SDS011;55274;43.060;25.618;2022-10-22T03:16:59;23.98;;;7.60;;
68353;SDS011;55274;43.060;25.618;2022-10-22T03:19:25;14.30;;;6.00;;
68353;SDS011;55274;43.060;25.618;2022-10-22T03:21:52;13.10;;;4.88;;
68353;SDS011;55274;43.060;25.618;2022-10-22T03:24:22;19.20;;;5.82;;
68353;SDS011;55274;43.060;25.618;2022-10-22T03:26:52;33.92;;;6.10;;
68353;SDS011;55274;43.060;25.618;2022-10-22T03:29:18;12.15;;;4.57;;
68353;SDS011;55274;43.060;25.618;2022-10-22T03:31:46;11.95;;;4.63;;
68353;SDS011;55274;43.060;25.618;2022-10-22T03:34:12;11.38;;;4.70;;
68353;SDS011;55274;43.060;25.618;2022-10-22T03:36:39;11.63;;;4.70;;
68353;SDS011;55274;43.060;25.618;2022-10-22T03:39:05;13.50;;;4.82;;
68353;SDS011;55274;43.060;25.618;2022-10-22T03:41:32;12.32;;;4.90;;
68353;SDS011;55274;43.060;25.618;2022-10-22T03:43:59;19.20;;;4.90;;
68353;SDS011;55274;43.060;25.618;2022-10-22T03:46:26;12.32;;;5.38;;
68353;SDS011;55274;43.060;25.618;2022-10-22T03:48:52;13.98;;;5.05;;
68353;SDS011;55274;43.060;25.618;2022-10-22T03:51:18;13.68;;;4.68;;
68353;SDS011;55274;43.060;25.618;2022-10-22T03:53:44;14.95;;;4.45;;
68353;SDS011;55274;43.060;25.618;2022-10-22T03:56:10;21.10;;;5.32;;
68353;SDS011;55274;43.060;25.618;2022-10-22T03:58:37;13.23;;;4.35;;
68353;SDS011;55274;43.060;25.618;2022-10-22T04:01:08;16.60;;;4.93;;
68353;SDS011;55274;43.060;25.618;2022-10-22T04:03:35;16.75;;;4.78;;
68353;SDS011;55274;43.060;25.618;2022-10-22T04:06:02;14.25;;;4.88;;
68353;SDS011;55274;43.060;25.618;2022-10-22T04:08:32;10.65;;;4.63;;
68353;SDS011;55274;43.060;25.618;2022-10-22T04:10:58;20.42;;;5.90;;
68353;SDS011;55274;43.060;25.618;2022-10-22T04:13:24;16.73;;;4.75;;
68353;SDS011;55274;43.060;25.618;2022-10-22T04:15:50;14.05;;;5.22;;
68353;SDS011;55274;43.060;25.618;2022-10-22T04:18:19;9.70;;;4.32;;
68353;SDS011;55274;43.060;25.618;2022-10-22T04:20:45;9.70;;;4.15;;
68353;SDS011;55274;43.060;25.618;2022-10-22T04:23:12;9.18;;;4.30;;
68353;SDS011;55274;43.060;25.618;2022-10-22T04:25:38;13.20;;;4.25;;
68353;SDS011;55274;43.060;25.618;2022-10-22T04:28:07;10.85;;;4.10;;
68353;SDS011;55274;43.060;25.618;2022-10-22T04:30:34;12.63;;;5.50;;
68353;SDS011;55274;43.060;25.618;2022-10-22T04:33:01;14.23;;;5.03;;
68353;SDS011;55274;43.060;25.618;2022-10-22T04:35:27;13.50;;;4.97;;
68353;SDS011;55274;43.060;25.618;2022-10-22T04:37:53;13.95;;;4.47;;
68353;SDS011;55274;43.060;25.618;2022-10-22T04:40:20;15.25;;;4.88;;
68353;SDS011;55274;43.060;25.618;2022-10-22T04:42:46;12.55;;;4.20;;
68353;SDS011;55274;43.060;25.618;2022-10-22T04:45:12;7.22;;;4.00;;
68353;SDS011;55274;43.060;25.618;2022-10-22T04:47:39;9.00;;;4.50;;
68353;SDS011;55274;43.060;25.618;2022-10-22T04:50:05;17.83;;;5.13;;
68353;SDS011;55274;43.060;25.618;2022-10-22T04:52:31;24.13;;;5.95;;
68353;SDS011;55274;43.060;25.618;2022-10-22T04:54:57;15.25;;;5.28;;
68353;SDS011;55274;43.060;25.618;2022-10-22T04:57:23;15.73;;;4.88;;
68353;SDS011;55274;43.060;25.618;2022-10-22T04:59:49;21.05;;;4.90;;
68353;SDS011;55274;43.060;25.618;2022-10-22T05:02:14;12.18;;;4.90;;
68353;SDS011;55274;43.060;25.618;2022-10-22T05:04:42;14.48;;;5.55;;
68353;SDS011;55274;43.060;25.618;2022-10-22T05:07:08;9.48;;;3.90;;
68353;SDS011;55274;43.060;25.618;2022-10-22T05:09:34;12.98;;;4.63;;
68353;SDS011;55274;43.060;25.618;2022-10-22T05:12:00;15.63;;;4.57;;
68353;SDS011;55274;43.060;25.618;2022-10-22T05:14:26;11.40;;;5.03;;
68353;SDS011;55274;43.060;25.618;2022-10-22T05:16:52;17.92;;;4.60;;
68353;SDS011;55274;43.060;25.618;2022-10-22T05:19:19;27.83;;;6.30;;
68353;SDS011;55274;43.060;25.618;2022-10-22T05:21:59;23.90;;;4.72;;
68353;SDS011;55274;43.060;25.618;2022-10-22T05:24:26;20.70;;;4.70;;
68353;SDS011;55274;43.060;25.618;2022-10-22T05:26:53;19.35;;;5.45;;
68353;SDS011;55274;43.060;25.618;2022-10-22T05:29:21;24.85;;;5.57;;
68353;SDS011;55274;43.060;25.618;2022-10-22T05:31:47;18.92;;;5.75;;
68353;SDS011;55274;43.060;25.618;2022-10-22T05:34:13;16.95;;;4.60;;
68353;SDS011;55274;43.060;25.618;2022-10-22T05:36:39;26.83;;;5.30;;
68353;SDS011;55274;43.060;25.618;2022-10-22T05:39:05;26.50;;;5.25;;
68353;SDS011;55274;43.060;25.618;2022-10-22T05:41:31;14.80;;;5.25;;
68353;SDS011;55274;43.060;25.618;2022-10-22T05:43:58;15.73;;;4.78;;
68353;SDS011;55274;43.060;25.618;2022-10-22T05:46:25;36.28;;;6.35;;
68353;SDS011;55274;43.060;25.618;2022-10-22T05:48:53;22.25;;;5.65;;
68353;SDS011;55274;43.060;25.618;2022-10-22T05:51:20;17.08;;;4.80;;
68353;SDS011;55274;43.060;25.618;2022-10-22T05:53:49;22.27;;;5.15;;
68353;SDS011;55274;43.060;25.618;2022-10-22T05:56:20;14.05;;;4.47;;
68353;SDS011;55274;43.060;25.618;2022-10-22T05:58:47;21.35;;;4.75;;
68353;SDS011;55274;43.060;25.618;2022-10-22T06:01:17;10.38;;;4.43;;
68353;SDS011;55274;43.060;25.618;2022-10-22T06:03:45;11.63;;;4.43;;
68353;SDS011;55274;43.060;25.618;2022-10-22T06:06:26;13.65;;;4.40;;
68353;SDS011;55274;43.060;25.618;2022-10-22T06:08:55;13.95;;;5.22;;
68353;SDS011;55274;43.060;25.618;2022-10-22T06:11:24;8.98;;;4.18;;
68353;SDS011;55274;43.060;25.618;2022-10-22T06:13:50;14.98;;;5.47;;
68353;SDS011;55274;43.060;25.618;2022-10-22T06:16:16;11.48;;;4.70;;
68353;SDS011;55274;43.060;25.618;2022-10-22T06:18:42;11.40;;;4.53;;
68353;SDS011;55274;43.060;25.618;2022-10-22T06:21:13;13.55;;;4.15;;
68353;SDS011;55274;43.060;25.618;2022-10-22T06:23:40;8.63;;;3.42;;
68353;SDS011;55274;43.060;25.618;2022-10-22T06:26:07;9.63;;;3.83;;
68353;SDS011;55274;43.060;25.618;2022-10-22T06:28:34;16.85;;;5.20;;
68353;SDS011;55274;43.060;25.618;2022-10-22T06:31:00;15.48;;;5.65;;
68353;SDS011;55274;43.060;25.618;2022-10-22T06:33:27;11.50;;;5.30;;
68353;SDS011;55274;43.060;25.618;2022-10-22T06:35:53;17.48;;;6.70;;
68353;SDS011;55274;43.060;25.618;2022-10-22T06:38:19;44.30;;;19.02;;
68353;SDS011;55274;43.060;25.618;2022-10-22T06:40:45;29.23;;;12.48;;
68353;SDS011;55274;43.060;25.618;2022-10-22T06:43:11;41.63;;;12.93;;
68353;SDS011;55274;43.060;25.618;2022-10-22T06:45:38;32.13;;;10.75;;
68353;SDS011;55274;43.060;25.618;2022-10-22T06:48:04;26.85;;;8.60;;
68353;SDS011;55274;43.060;25.618;2022-10-22T06:50:32;26.08;;;10.38;;
68353;SDS011;55274;43.060;25.618;2022-10-22T06:52:59;43.55;;;19.30;;
68353;SDS011;55274;43.060;25.618;2022-10-22T06:55:24;35.75;;;15.73;;
68353;SDS011;55274;43.060;25.618;2022-10-22T06:57:50;26.20;;;9.57;;
68353;SDS011;55274;43.060;25.618;2022-10-22T07:00:16;43.25;;;19.60;;
68353;SDS011;55274;43.060;25.618;2022-10-22T07:02:42;40.40;;;17.83;;
68353;SDS011;55274;43.060;25.618;2022-10-22T07:05:08;51.42;;;18.77;;
68353;SDS011;55274;43.060;25.618;2022-10-22T07:07:34;49.08;;;16.60;;
68353;SDS011;55274;43.060;25.618;2022-10-22T07:09:59;26.30;;;9.00;;
68353;SDS011;55274;43.060;25.618;2022-10-22T07:12:25;33.28;;;8.18;;
68353;SDS011;55274;43.060;25.618;2022-10-22T07:14:51;17.17;;;6.97;;
68353;SDS011;55274;43.060;25.618;2022-10-22T07:17:17;30.92;;;9.15;;
68353;SDS011;55274;43.060;25.618;2022-10-22T07:19:42;20.52;;;6.93;;
68353;SDS011;55274;43.060;25.618;2022-10-22T07:22:08;23.13;;;6.55;;
68353;SDS011;55274;43.060;25.618;2022-10-22T07:24:34;22.10;;;6.30;;
68353;SDS011;55274;43.060;25.618;2022-10-22T07:26:59;14.27;;;5.80;;
68353;SDS011;55274;43.060;25.618;2022-10-22T07:29:25;14.05;;;5.15;;
68353;SDS011;55274;43.060;25.618;2022-10-22T07:31:52;10.63;;;5.50;;
68353;SDS011;55274;43.060;25.618;2022-10-22T07:34:18;8.95;;;4.55;;
68353;SDS011;55274;43.060;25.618;2022-10-22T07:36:43;28.58;;;11.75;;
68353;SDS011;55274;43.060;25.618;2022-10-22T07:39:09;18.77;;;7.72;;
68353;SDS011;55274;43.060;25.618;2022-10-22T07:41:35;15.13;;;5.57;;
68353;SDS011;55274;43.060;25.618;2022-10-22T07:44:01;13.60;;;6.60;;
68353;SDS011;55274;43.060;25.618;2022-10-22T07:46:26;17.80;;;7.15;;
68353;SDS011;55274;43.060;25.618;2022-10-22T07:48:52;23.95;;;6.13;;
68353;SDS011;55274;43.060;25.618;2022-10-22T07:51:18;19.08;;;7.47;;
68353;SDS011;55274;43.060;25.618;2022-10-22T07:53:44;21.02;;;8.02;;
68353;SDS011;55274;43.060;25.618;2022-10-22T07:56:09;23.67;;;9.68;;
68353;SDS011;55274;43.060;25.618;2022-10-22T07:58:35;24.63;;;10.07;;
68353;SDS011;55274;43.060;25.618;2022-10-22T08:01:02;27.17;;;13.05;;
68353;SDS011;55274;43.060;25.618;2022-10-22T08:03:30;21.85;;;11.13;;
68353;SDS011;55274;43.060;25.618;2022-10-22T08:05:56;20.02;;;10.00;;
68353;SDS011;55274;43.060;25.618;2022-10-22T08:08:22;21.13;;;9.52;;
68353;SDS011;55274;43.060;25.618;2022-10-22T08:10:49;17.50;;;7.25;;
68353;SDS011;55274;43.060;25.618;2022-10-22T08:13:17;20.90;;;8.70;;
68353;SDS011;55274;43.060;25.618;2022-10-22T08:15:43;24.50;;;9.30;;
68353;SDS011;55274;43.060;25.618;2022-10-22T08:18:10;18.98;;;8.93;;
68353;SDS011;55274;43.060;25.618;2022-10-22T08:20:36;17.73;;;8.27;;
68353;SDS011;55274;43.060;25.618;2022-10-22T08:23:03;25.88;;;8.15;;
68353;SDS011;55274;43.060;25.618;2022-10-22T08:25:29;18.88;;;8.73;;
68353;SDS011;55274;43.060;25.618;2022-10-22T08:27:55;25.90;;;9.13;;
68353;SDS011;55274;43.060;25.618;2022-10-22T08:30:21;25.23;;;8.50;;
68353;SDS011;55274;43.060;25.618;2022-10-22T08:32:47;56.75;;;11.18;;
68353;SDS011;55274;43.060;25.618;2022-10-22T08:35:13;33.70;;;9.10;;
68353;SDS011;55274;43.060;25.618;2022-10-22T08:37:39;18.17;;;8.02;;
68353;SDS011;55274;43.060;25.618;2022-10-22T08:40:04;28.33;;;8.68;;
68353;SDS011;55274;43.060;25.618;2022-10-22T08:49:02;21.27;;;6.32;;
68353;SDS011;55274;43.060;25.618;2022-10-22T08:51:32;22.63;;;6.93;;
68353;SDS011;55274;43.060;25.618;2022-10-22T09:02:07;54.30;;;9.02;;
68353;SDS011;55274;43.060;25.618;2022-10-22T09:07:39;41.45;;;7.00;;
68353;SDS011;55274;43.060;25.618;2022-10-22T09:10:08;97.68;;;12.55;;
68353;SDS011;55274;43.060;25.618;2022-10-22T09:12:36;134.57;;;13.20;;
68353;SDS011;55274;43.060;25.618;2022-10-22T09:15:03;70.93;;;9.57;;
68353;SDS011;55274;43.060;25.618;2022-10-22T09:17:35;44.17;;;7.18;;
68353;SDS011;55274;43.060;25.618;2022-10-22T09:20:14;26.20;;;5.35;;
68353;SDS011;55274;43.060;25.618;2022-10-22T09:23:10;16.50;;;5.03;;
68353;SDS011;55274;43.060;25.618;2022-10-22T09:25:49;19.60;;;4.80;;
68353;SDS011;55274;43.060;25.618;2022-10-22T09:28:17;16.60;;;4.55;;
68353;SDS011;55274;43.060;25.618;2022-10-22T09:30:43;35.72;;;4.82;;
68353;SDS011;55274;43.060;25.618;2022-10-22T09:33:12;47.60;;;6.03;;
68353;SDS011;55274;43.060;25.618;2022-10-22T09:38:32;10.75;;;3.17;;
68353;SDS011;55274;43.060;25.618;2022-10-22T09:41:03;9.30;;;3.15;;
68353;SDS011;55274;43.060;25.618;2022-10-22T09:43:29;12.00;;;3.30;;
68353;SDS011;55274;43.060;25.618;2022-10-22T09:46:00;20.95;;;4.45;;
68353;SDS011;55274;43.060;25.618;2022-10-22T09:48:29;27.30;;;4.15;;
68353;SDS011;55274;43.060;25.618;2022-10-22T09:53:31;8.05;;;3.38;;
68353;SDS011;55274;43.060;25.618;2022-10-22T09:56:06;19.95;;;3.75;;
68353;SDS011;55274;43.060;25.618;2022-10-22T09:58:50;8.82;;;3.05;;
68353;SDS011;55274;43.060;25.618;2022-10-22T10:01:26;14.57;;;3.20;;
68353;SDS011;55274;43.060;25.618;2022-10-22T10:04:00;12.85;;;2.92;;
68353;SDS011;55274;43.060;25.618;2022-10-22T10:06:31;9.52;;;3.63;;
68353;SDS011;55274;43.060;25.618;2022-10-22T10:08:58;7.03;;;2.45;;
68353;SDS011;55274;43.060;25.618;2022-10-22T10:11:36;9.68;;;2.58;;
68353;SDS011;55274;43.060;25.618;2022-10-22T10:22:40;9.25;;;2.78;;
68353;SDS011;55274;43.060;25.618;2022-10-22T10:25:26;21.38;;;3.47;;
68353;SDS011;55274;43.060;25.618;2022-10-22T10:36:51;6.75;;;2.42;;
68353;SDS011;55274;43.060;25.618;2022-10-22T10:42:09;3.88;;;2.30;;
68353;SDS011;55274;43.060;25.618;2022-10-22T10:45:16;7.85;;;2.30;;
68353;SDS011;55274;43.060;25.618;2022-10-22T10:50:29;10.38;;;2.33;;
68353;SDS011;55274;43.060;25.618;2022-10-22T10:53:31;4.35;;;2.35;;
68353;SDS011;55274;43.060;25.618;2022-10-22T11:01:59;2.83;;;2.13;;
68353;SDS011;55274;43.060;25.618;2022-10-22T11:07:12;6.47;;;2.38;;
68353;SDS011;55274;43.060;25.618;2022-10-22T11:10:25;3.58;;;2.10;;
68353;SDS011;55274;43.060;25.618;2022-10-22T11:12:40;5.00;;;2.42;;
68353;SDS011;55274;43.060;25.618;2022-10-22T11:18:21;22.17;;;3.22;;
68353;SDS011;55274;43.060;25.618;2022-10-22T11:21:15;3.38;;;1.80;;
68353;SDS011;55274;43.060;25.618;2022-10-22T11:23:54;3.17;;;1.77;;
68353;SDS011;55274;43.060;25.618;2022-10-22T11:26:43;4.93;;;2.10;;
68353;SDS011;55274;43.060;25.618;2022-10-22T11:29:22;23.58;;;3.20;;
68353;SDS011;55274;43.060;25.618;2022-10-22T11:31:51;3.35;;;2.22;;
68353;SDS011;55274;43.060;25.618;2022-10-22T11:36:47;46.83;;;5.20;;
68353;SDS011;55274;43.060;25.618;2022-10-22T11:42:01;12.55;;;2.70;;
68353;SDS011;55274;43.060;25.618;2022-10-22T11:44:29;20.30;;;3.10;;
68353;SDS011;55274;43.060;25.618;2022-10-22T11:46:57;15.30;;;2.92;;
68353;SDS011;55274;43.060;25.618;2022-10-22T11:49:45;33.80;;;3.40;;
68353;SDS011;55274;43.060;25.618;2022-10-22T11:52:25;6.95;;;2.45;;
68353;SDS011;55274;43.060;25.618;2022-10-22T11:54:55;33.95;;;4.13;;
68353;SDS011;55274;43.060;25.618;2022-10-22T11:57:46;4.80;;;1.90;;
68353;SDS011;55274;43.060;25.618;2022-10-22T12:03:16;37.67;;;4.53;;
68353;SDS011;55274;43.060;25.618;2022-10-22T12:11:36;5.30;;;2.10;;
68353;SDS011;55274;43.060;25.618;2022-10-22T12:17:15;7.72;;;2.28;;
68353;SDS011;55274;43.060;25.618;2022-10-22T12:22:17;18.17;;;2.78;;
68353;SDS011;55274;43.060;25.618;2022-10-22T12:24:46;9.00;;;2.50;;
68353;SDS011;55274;43.060;25.618;2022-10-22T12:27:23;24.52;;;3.55;;
68353;SDS011;55274;43.060;25.618;2022-10-22T12:29:55;7.28;;;2.50;;
68353;SDS011;55274;43.060;25.618;2022-10-22T12:32:23;14.20;;;3.28;;
68353;SDS011;55274;43.060;25.618;2022-10-22T12:35:06;8.55;;;2.53;;
68353;SDS011;55274;43.060;25.618;2022-10-22T12:37:35;6.03;;;2.30;;
68353;SDS011;55274;43.060;25.618;2022-10-22T12:43:01;8.18;;;2.50;;
68353;SDS011;55274;43.060;25.618;2022-10-22T12:45:35;29.20;;;4.03;;
68353;SDS011;55274;43.060;25.618;2022-10-22T12:48:03;12.48;;;2.80;;
68353;SDS011;55274;43.060;25.618;2022-10-22T12:50:33;28.58;;;4.22;;
68353;SDS011;55274;43.060;25.618;2022-10-22T12:53:05;45.30;;;4.25;;
68353;SDS011;55274;43.060;25.618;2022-10-22T12:55:37;44.05;;;4.78;;
68353;SDS011;55274;43.060;25.618;2022-10-22T12:58:04;49.58;;;5.93;;
68353;SDS011;55274;43.060;25.618;2022-10-22T13:00:32;35.88;;;4.43;;
68353;SDS011;55274;43.060;25.618;2022-10-22T13:02:59;17.20;;;3.22;;
68353;SDS011;55274;43.060;25.618;2022-10-22T13:05:30;27.92;;;4.03;;
68353;SDS011;55274;43.060;25.618;2022-10-22T13:08:09;14.60;;;2.80;;
68353;SDS011;55274;43.060;25.618;2022-10-22T13:10:47;41.88;;;4.28;;
68353;SDS011;55274;43.060;25.618;2022-10-22T13:13:28;65.28;;;7.18;;
68353;SDS011;55274;43.060;25.618;2022-10-22T13:18:44;53.25;;;5.25;;
68353;SDS011;55274;43.060;25.618;2022-10-22T13:21:21;43.17;;;4.93;;
68353;SDS011;55274;43.060;25.618;2022-10-22T13:26:17;29.40;;;4.45;;
68353;SDS011;55274;43.060;25.618;2022-10-22T13:28:50;28.42;;;4.30;;
68353;SDS011;55274;43.060;25.618;2022-10-22T13:31:19;19.10;;;3.22;;
68353;SDS011;55274;43.060;25.618;2022-10-22T13:33:55;26.42;;;3.92;;
68353;SDS011;55274;43.060;25.618;2022-10-22T13:36:23;23.25;;;4.68;;
68353;SDS011;55274;43.060;25.618;2022-10-22T13:38:49;32.60;;;5.15;;
68353;SDS011;55274;43.060;25.618;2022-10-22T13:41:25;18.02;;;3.20;;
68353;SDS011;55274;43.060;25.618;2022-10-22T13:43:52;7.70;;;3.00;;
68353;SDS011;55274;43.060;25.618;2022-10-22T13:46:19;15.32;;;3.40;;
68353;SDS011;55274;43.060;25.618;2022-10-22T13:48:45;17.65;;;3.42;;
68353;SDS011;55274;43.060;25.618;2022-10-22T13:51:15;25.45;;;3.97;;
68353;SDS011;55274;43.060;25.618;2022-10-22T13:53:42;26.92;;;4.32;;
68353;SDS011;55274;43.060;25.618;2022-10-22T13:56:16;34.47;;;4.30;;
68353;SDS011;55274;43.060;25.618;2022-10-22T13:58:43;9.50;;;3.20;;
68353;SDS011;55274;43.060;25.618;2022-10-22T14:01:28;4.93;;;2.83;;
68353;SDS011;55274;43.060;25.618;2022-10-22T14:03:56;36.53;;;3.92;;
68353;SDS011;55274;43.060;25.618;2022-10-22T14:06:24;20.88;;;3.65;;
68353;SDS011;55274;43.060;25.618;2022-10-22T14:08:59;47.95;;;4.82;;
68353;SDS011;55274;43.060;25.618;2022-10-22T14:11:27;26.65;;;4.53;;
68353;SDS011;55274;43.060;25.618;2022-10-22T14:13:55;8.45;;;2.90;;
68353;SDS011;55274;43.060;25.618;2022-10-22T14:16:24;8.70;;;2.75;;
68353;SDS011;55274;43.060;25.618;2022-10-22T14:18:52;10.93;;;3.13;;
68353;SDS011;55274;43.060;25.618;2022-10-22T14:21:19;10.30;;;2.88;;
68353;SDS011;55274;43.060;25.618;2022-10-22T14:23:46;7.90;;;3.28;;
68353;SDS011;55274;43.060;25.618;2022-10-22T14:28:47;8.75;;;2.70;;
68353;SDS011;55274;43.060;25.618;2022-10-22T14:31:13;4.80;;;2.97;;
68353;SDS011;55274;43.060;25.618;2022-10-22T14:33:39;8.07;;;3.00;;
68353;SDS011;55274;43.060;25.618;2022-10-22T14:36:05;7.32;;;3.13;;
68353;SDS011;55274;43.060;25.618;2022-10-22T14:38:31;11.75;;;2.97;;
68353;SDS011;55274;43.060;25.618;2022-10-22T14:40:58;7.30;;;3.00;;
68353;SDS011;55274;43.060;25.618;2022-10-22T14:43:25;7.45;;;3.30;;
68353;SDS011;55274;43.060;25.618;2022-10-22T14:45:52;8.82;;;3.33;;
68353;SDS011;55274;43.060;25.618;2022-10-22T14:48:19;9.10;;;3.25;;
68353;SDS011;55274;43.060;25.618;2022-10-22T14:50:45;10.13;;;3.15;;
68353;SDS011;55274;43.060;25.618;2022-10-22T14:53:11;6.97;;;3.20;;
68353;SDS011;55274;43.060;25.618;2022-10-22T14:55:38;11.43;;;3.00;;
68353;SDS011;55274;43.060;25.618;2022-10-22T14:58:05;13.30;;;3.25;;
68353;SDS011;55274;43.060;25.618;2022-10-22T15:00:31;6.18;;;2.60;;
68353;SDS011;55274;43.060;25.618;2022-10-22T15:02:58;8.00;;;2.90;;
68353;SDS011;55274;43.060;25.618;2022-10-22T15:05:24;6.10;;;2.60;;
68353;SDS011;55274;43.060;25.618;2022-10-22T15:07:50;6.65;;;2.92;;
68353;SDS011;55274;43.060;25.618;2022-10-22T15:10:16;8.38;;;3.50;;
68353;SDS011;55274;43.060;25.618;2022-10-22T15:12:42;4.50;;;2.80;;
68353;SDS011;55274;43.060;25.618;2022-10-22T15:15:07;7.60;;;3.20;;
68353;SDS011;55274;43.060;25.618;2022-10-22T15:17:33;7.03;;;2.92;;
68353;SDS011;55274;43.060;25.618;2022-10-22T15:19:59;7.50;;;3.40;;
68353;SDS011;55274;43.060;25.618;2022-10-22T15:22:28;8.07;;;3.00;;
68353;SDS011;55274;43.060;25.618;2022-10-22T15:24:56;7.07;;;3.38;;
68353;SDS011;55274;43.060;25.618;2022-10-22T15:27:22;5.70;;;2.83;;
68353;SDS011;55274;43.060;25.618;2022-10-22T15:29:49;8.35;;;3.40;;
68353;SDS011;55274;43.060;25.618;2022-10-22T15:32:15;11.02;;;3.33;;
68353;SDS011;55274;43.060;25.618;2022-10-22T15:34:40;6.50;;;3.20;;
68353;SDS011;55274;43.060;25.618;2022-10-22T15:37:07;7.90;;;3.15;;
68353;SDS011;55274;43.060;25.618;2022-10-22T15:39:39;8.80;;;3.33;;
68353;SDS011;55274;43.060;25.618;2022-10-22T15:42:06;8.57;;;2.90;;
68353;SDS011;55274;43.060;25.618;2022-10-22T15:44:33;7.18;;;3.33;;
68353;SDS011;55274;43.060;25.618;2022-10-22T15:46:59;6.95;;;3.00;;
68353;SDS011;55274;43.060;25.618;2022-10-22T15:49:28;8.48;;;3.40;;
68353;SDS011;55274;43.060;25.618;2022-10-22T15:51:54;8.35;;;3.20;;
68353;SDS011;55274;43.060;25.618;2022-10-22T15:54:22;11.60;;;3.45;;
68353;SDS011;55274;43.060;25.618;2022-10-22T15:56:49;7.50;;;3.13;;
68353;SDS011;55274;43.060;25.618;2022-10-22T15:59:15;9.80;;;3.55;;
68353;SDS011;55274;43.060;25.618;2022-10-22T16:01:42;8.02;;;3.42;;
68353;SDS011;55274;43.060;25.618;2022-10-22T16:04:08;8.07;;;3.20;;
68353;SDS011;55274;43.060;25.618;2022-10-22T16:06:35;5.65;;;2.90;;
68353;SDS011;55274;43.060;25.618;2022-10-22T16:09:07;8.05;;;3.40;;
68353;SDS011;55274;43.060;25.618;2022-10-22T16:11:36;12.32;;;3.90;;
68353;SDS011;55274;43.060;25.618;2022-10-22T16:14:03;6.70;;;3.40;;
68353;SDS011;55274;43.060;25.618;2022-10-22T16:16:30;7.63;;;3.40;;
68353;SDS011;55274;43.060;25.618;2022-10-22T16:18:57;11.88;;;3.40;;
68353;SDS011;55274;43.060;25.618;2022-10-22T16:21:23;10.88;;;3.70;;
68353;SDS011;55274;43.060;25.618;2022-10-22T16:23:49;9.05;;;3.53;;
68353;SDS011;55274;43.060;25.618;2022-10-22T16:26:16;16.73;;;3.85;;
68353;SDS011;55274;43.060;25.618;2022-10-22T16:28:42;5.68;;;3.17;;